Forside
METAR-TAF:

METAR-TAF

Lufthavne :

Leeming, England

Breddekreds: 54-18N, længdekreds: 001-32W, højde: 40 m

Aktuelle vejr

Denne rapport blev lavet for 1 time og 17 minutter siden, kl. 17:50 UTC
Vind 10 kt fra vest
Temperatur 5°C
Fugtighed 81%
Tryk 1009 hPa
Sigt 10 km eller mere
Nogle få skyer i en højde af 2500 ft

METAR: EGXE 021750Z 26010KT 9999 FEW025 05/02 Q1009 NOSIG RMK BLU BLU

Tid: 19:07 (19:07 UTC)

Vejrudsigter

Denne rapport blev lavet for 2 timer og 18 minutter siden, kl. 16:49 UTC
Foreløbig gælder fra 02 på 18 UTC til 02 på 23 UTC
Vind 10 kt fra vest
Sigt 10 km eller mere
Nogle få skyer i en højde af 2500 ft
Sandsynlighed 30% :
Midlertidig
fra 02 på 18 UTC til 02 på 23 UTC
Sigt: 7000 m
Spredte skyer i en højde af 2000 ft
let regnbyger

TAF: EGXE 021649Z 0218/0223 27010KT 9999 FEW025 PROB30 TEMPO 0218/0223 7000 -SHRA SCT020

Vejrobservationer og prognoser fra mere end 4000 lufthavne (METAR og TAF).

De gule og røde prikker repræsenterer de meteorologiske stationer.

Flyt musen over at se navnet på stationen.

Så klik over at se vejr observationer og prognoser.

At skifte det kort: Klik på de grønne knapper med et sort kors for at zoome ind; på den grønne knap med en bindestreg for at zoome ud; eller på de grønne pile for tilstødende kort.


METAR-TAF: